Time;durP1;ratioP1;P1;durP2;ratioP2;P2;SDS_P1;SDS_P2;PMS_P1;PMS_P2;Temp;Humidity;BMP_temperature;BMP_pressure;BME280_temperature;BME280_humidity;BME280_pressure;Samples;Min_cycle;Max_cycle;Signal;HPM_P1;HPM_P2
2023/08/09 00:01:02;;;;;;;1.30;1.20;;;16.70;91.30;;;;;;5096190;28;20672;-73
2023/08/09 00:03:31;;;;;;;1.67;1.57;;;16.70;91.10;;;;;;5099037;28;20627;-73
2023/08/09 00:05:57;;;;;;;1.40;1.07;;;16.60;91.10;;;;;;5098047;28;20873;-73
2023/08/09 00:08:24;;;;;;;1.97;1.60;;;16.70;91.20;;;;;;5098561;28;20634;-73
2023/08/09 00:10:51;;;;;;;2.13;1.57;;;16.70;91.40;;;;;;5098785;28;20652;-73
2023/08/09 00:13:18;;;;;;;1.47;1.37;;;16.70;91.20;;;;;;5093697;28;20620;-74
2023/08/09 00:15:44;;;;;;;2.73;1.80;;;16.70;91.40;;;;;;5103434;28;20658;-73
2023/08/09 00:18:11;;;;;;;1.33;1.23;;;16.60;92.00;;;;;;5102309;28;20638;-73
2023/08/09 00:20:40;;;;;;;1.90;1.70;;;16.70;92.60;;;;;;5099550;28;20674;-73
2023/08/09 00:23:07;;;;;;;1.77;1.63;;;16.60;92.40;;;;;;5090759;28;20958;-74
2023/08/09 00:25:34;;;;;;;1.57;1.47;;;16.60;92.50;;;;;;5099754;28;20659;-74
2023/08/09 00:28:02;;;;;;;2.10;1.90;;;16.60;92.60;;;;;;5097687;28;20619;-74
2023/08/09 00:30:28;;;;;;;1.63;1.53;;;16.50;92.30;;;;;;5100895;28;20648;-74
2023/08/09 00:32:55;;;;;;;2.00;1.17;;;16.40;93.30;;;;;;5099351;28;20984;-74
2023/08/09 00:35:22;;;;;;;3.77;1.60;;;16.40;93.50;;;;;;5099594;28;20652;-74
2023/08/09 00:37:50;;;;;;;1.63;1.07;;;16.40;93.70;;;;;;5085809;28;20627;-74
2023/08/09 00:40:17;;;;;;;1.30;1.20;;;16.40;94.50;;;;;;5099142;28;20629;-74
2023/08/09 00:42:44;;;;;;;1.70;1.60;;;16.30;95.80;;;;;;5099495;28;21191;-74
2023/08/09 00:45:12;;;;;;;1.33;1.20;;;16.20;96.00;;;;;;5099423;28;21047;-74
2023/08/09 00:47:39;;;;;;;2.20;2.00;;;16.10;97.30;;;;;;5100157;28;20629;-74
2023/08/09 00:50:07;;;;;;;1.60;1.50;;;16.00;97.60;;;;;;5101801;28;20728;-74
2023/08/09 00:52:34;;;;;;;1.30;1.20;;;16.00;97.30;;;;;;5094486;28;20620;-74
2023/08/09 00:55:03;;;;;;;1.60;1.43;;;16.00;98.90;;;;;;5101875;28;21237;-74
2023/08/09 00:57:30;;;;;;;1.50;1.40;;;16.00;97.60;;;;;;5102686;28;20627;-74
2023/08/09 00:59:57;;;;;;;1.53;1.43;;;16.00;98.30;;;;;;5101042;28;20632;-74
2023/08/09 01:02:24;;;;;;;1.80;1.50;;;16.00;98.30;;;;;;5098385;28;20672;-75
2023/08/09 01:04:51;;;;;;;1.80;1.70;;;16.00;98.30;;;;;;5099149;28;20627;-74
2023/08/09 01:07:28;;;;;;;1.47;1.30;;;16.00;99.00;;;;;;5098326;28;20747;-74
2023/08/09 01:10:03;;;;;;;2.60;1.90;;;15.90;99.80;;;;;;5098596;28;21015;-74
2023/08/09 01:12:39;;;;;;;3.27;1.53;;;15.90;99.40;;;;;;5097592;28;20651;-74
2023/08/09 01:15:08;;;;;;;1.53;1.43;;;15.80;99.90;;;;;;5099674;28;20678;-74
2023/08/09 01:17:36;;;;;;;1.40;1.30;;;15.80;99.30;;;;;;5101519;28;20631;-74
2023/08/09 01:20:11;;;;;;;1.60;1.50;;;15.80;99.20;;;;;;5106219;28;21240;-74
2023/08/09 01:22:45;;;;;;;1.90;1.70;;;15.80;99.80;;;;;;5092745;28;20688;-74
2023/08/09 01:25:14;;;;;;;2.80;2.03;;;15.80;99.70;;;;;;5089853;28;20639;-74
2023/08/09 01:27:42;;;;;;;1.60;1.33;;;15.80;99.00;;;;;;5101912;28;21226;-74
2023/08/09 01:30:11;;;;;;;1.97;1.80;;;15.80;99.30;;;;;;5101057;28;21170;-74
2023/08/09 01:32:38;;;;;;;1.80;1.60;;;15.80;99.80;;;;;;5099004;28;21209;-73
2023/08/09 01:35:07;;;;;;;3.50;1.70;;;15.80;99.90;;;;;;5098567;28;20964;-73
2023/08/09 01:37:40;;;;;;;1.67;1.57;;;15.80;99.90;;;;;;5100312;28;20632;-74
2023/08/09 01:40:12;;;;;;;2.33;1.90;;;15.80;99.60;;;;;;5100936;28;21107;-73
2023/08/09 01:42:41;;;;;;;1.97;1.60;;;15.80;99.00;;;;;;5091697;28;20652;-73
2023/08/09 01:45:11;;;;;;;1.70;1.60;;;15.70;99.90;;;;;;5098475;28;20920;-73
2023/08/09 01:47:39;;;;;;;1.70;1.50;;;15.60;99.90;;;;;;5098935;28;20628;-73
2023/08/09 01:50:17;;;;;;;1.40;1.30;;;15.60;99.90;;;;;;5094703;28;20710;-73
2023/08/09 01:52:44;;;;;;;1.60;1.50;;;15.60;99.90;;;;;;5097615;28;20652;-73
2023/08/09 01:55:15;;;;;;;2.87;1.90;;;15.70;99.90;;;;;;5101302;28;20975;-73
2023/08/09 01:57:44;;;;;;;1.53;1.43;;;15.70;99.90;;;;;;5101406;28;20667;-73
2023/08/09 02:00:18;;;;;;;2.30;2.10;;;15.70;99.90;;;;;;5081024;28;20624;-74
2023/08/09 02:02:47;;;;;;;2.10;1.90;;;15.70;99.90;;;;;;5098312;28;21235;-74
2023/08/09 02:05:15;;;;;;;1.70;1.60;;;15.70;99.90;;;;;;5092730;28;20624;-74
2023/08/09 02:07:43;;;;;;;1.90;1.80;;;15.60;99.90;;;;;;5095717;28;20753;-74
2023/08/09 02:10:11;;;;;;;1.53;1.40;;;15.60;99.90;;;;;;5089458;28;20613;-74
2023/08/09 02:12:38;;;;;;;1.77;1.53;;;15.60;99.90;;;;;;5098020;28;20708;-74
2023/08/09 02:15:08;;;;;;;1.57;1.47;;;15.60;99.90;;;;;;5098052;28;20605;-74
2023/08/09 02:17:36;;;;;;;1.73;1.63;;;15.60;99.90;;;;;;5101077;28;20648;-74
2023/08/09 02:20:04;;;;;;;2.10;1.40;;;15.60;99.90;;;;;;5099907;28;20677;-73
2023/08/09 02:22:37;;;;;;;1.73;1.20;;;15.50;99.90;;;;;;5088526;28;20652;-74
2023/08/09 02:25:06;;;;;;;1.50;1.40;;;15.50;99.90;;;;;;5088922;28;20667;-74
2023/08/09 02:27:34;;;;;;;1.50;1.40;;;15.40;99.90;;;;;;5100739;28;20621;-74
2023/08/09 02:30:04;;;;;;;1.50;1.40;;;15.40;99.90;;;;;;5099671;28;20623;-74
2023/08/09 02:32:34;;;;;;;2.97;1.80;;;15.40;99.90;;;;;;5098529;28;20982;-74
2023/08/09 02:35:02;;;;;;;1.93;1.70;;;15.50;99.90;;;;;;5096607;28;21041;-74
2023/08/09 02:37:30;;;;;;;1.87;1.50;;;15.50;99.90;;;;;;5098079;28;20757;-74
2023/08/09 02:39:57;;;;;;;3.90;1.87;;;15.50;99.90;;;;;;5095752;28;20647;-74
2023/08/09 02:42:25;;;;;;;1.73;1.63;;;15.50;99.90;;;;;;5088540;28;21063;-74
2023/08/09 02:44:53;;;;;;;2.10;1.70;;;15.50;99.90;;;;;;5097395;28;20619;-74
2023/08/09 02:47:20;;;;;;;2.43;1.80;;;15.40;99.90;;;;;;5096627;28;21059;-73
2023/08/09 02:49:49;;;;;;;2.17;1.50;;;15.50;99.90;;;;;;5097718;28;20716;-73
2023/08/09 02:52:16;;;;;;;1.60;1.50;;;15.50;99.90;;;;;;5088530;28;20641;-73
2023/08/09 02:54:43;;;;;;;0.97;0.93;;;15.50;99.90;;;;;;5097217;28;20628;-73
2023/08/09 02:57:12;;;;;;;1.40;1.30;;;15.60;99.90;;;;;;5092179;28;20647;-73
2023/08/09 02:59:41;;;;;;;2.83;1.60;;;15.50;99.90;;;;;;5099868;28;21128;-73
2023/08/09 03:02:08;;;;;;;1.80;1.70;;;15.40;99.90;;;;;;5097137;28;21279;-73
2023/08/09 03:04:36;;;;;;;2.23;1.47;;;15.30;99.90;;;;;;5096995;28;20621;-73
2023/08/09 03:07:05;;;;;;;1.97;1.40;;;15.30;99.90;;;;;;5092468;28;21078;-73
2023/08/09 03:09:34;;;;;;;1.60;1.50;;;15.30;99.90;;;;;;5096380;28;20620;-73
2023/08/09 03:12:02;;;;;;;4.17;1.90;;;15.30;99.90;;;;;;5099505;28;20693;-73
2023/08/09 03:14:30;;;;;;;1.90;1.27;;;15.20;99.90;;;;;;5096403;28;20632;-73
2023/08/09 03:16:58;;;;;;;1.70;1.60;;;15.20;99.90;;;;;;5096817;28;20645;-73
2023/08/09 03:19:25;;;;;;;1.40;1.30;;;15.30;99.90;;;;;;5098900;28;20689;-73
2023/08/09 03:21:52;;;;;;;1.80;1.47;;;15.30;99.90;;;;;;5093158;28;20661;-73
2023/08/09 03:24:20;;;;;;;2.23;2.03;;;15.30;99.90;;;;;;5097860;28;21180;-73
2023/08/09 03:26:47;;;;;;;1.50;1.40;;;15.30;99.90;;;;;;5099263;28;20700;-73
2023/08/09 03:29:14;;;;;;;2.20;2.00;;;15.30;99.90;;;;;;5099021;28;20644;-73
2023/08/09 03:31:41;;;;;;;1.27;1.17;;;15.40;99.90;;;;;;5079325;28;20644;-73
2023/08/09 03:34:08;;;;;;;1.60;1.50;;;15.40;99.90;;;;;;5096764;28;20675;-73
2023/08/09 03:36:35;;;;;;;1.97;1.87;;;15.40;99.90;;;;;;5096559;28;20678;-74
2023/08/09 03:39:02;;;;;;;1.77;1.67;;;15.40;99.90;;;;;;5087371;28;20952;-73
2023/08/09 03:41:35;;;;;;;2.20;2.10;;;15.50;99.90;;;;;;5094925;28;20782;-73
2023/08/09 03:44:02;;;;;;;3.17;2.10;;;15.40;99.90;;;;;;5099721;28;20722;-73
2023/08/09 03:46:28;;;;;;;1.70;1.60;;;15.50;99.90;;;;;;5099276;28;20644;-74
2023/08/09 03:48:56;;;;;;;1.60;1.50;;;15.50;99.90;;;;;;5095863;28;20984;-73
2023/08/09 03:51:22;;;;;;;2.10;2.00;;;15.50;99.90;;;;;;5096010;28;20684;-73
2023/08/09 03:53:49;;;;;;;1.67;1.57;;;15.40;99.90;;;;;;5090028;28;20686;-73
2023/08/09 03:56:16;;;;;;;3.23;1.67;;;15.50;99.90;;;;;;5094408;28;20762;-73
2023/08/09 03:58:44;;;;;;;1.43;1.33;;;15.50;99.90;;;;;;5099339;28;20627;-74
2023/08/09 04:01:11;;;;;;;1.47;1.13;;;15.50;99.90;;;;;;5079098;28;20651;-73
2023/08/09 04:03:39;;;;;;;1.43;1.37;;;15.60;99.90;;;;;;5096373;28;20656;-73
2023/08/09 04:06:06;;;;;;;1.30;1.20;;;15.60;99.90;;;;;;5097937;28;20995;-73
2023/08/09 04:08:33;;;;;;;1.10;1.00;;;15.60;99.90;;;;;;5098719;28;20816;-73
2023/08/09 04:11:00;;;;;;;1.87;1.33;;;15.50;99.90;;;;;;5097780;28;20996;-73
2023/08/09 04:13:27;;;;;;;1.30;1.20;;;15.60;99.90;;;;;;5093536;28;20624;-73
2023/08/09 04:15:56;;;;;;;1.60;1.50;;;15.60;99.90;;;;;;5097466;28;20639;-73
2023/08/09 04:18:23;;;;;;;2.30;1.27;;;15.60;99.90;;;;;;5096500;28;20995;-74
2023/08/09 04:20:50;;;;;;;2.23;1.20;;;15.60;99.90;;;;;;5095203;28;20668;-73
2023/08/09 04:23:18;;;;;;;1.63;1.53;;;15.60;99.90;;;;;;5095694;28;20655;-74
2023/08/09 04:25:46;;;;;;;1.70;1.60;;;15.60;99.90;;;;;;5093362;28;20651;-74
2023/08/09 04:28:13;;;;;;;1.77;1.67;;;15.60;99.90;;;;;;5099295;28;20628;-74
2023/08/09 04:30:40;;;;;;;1.30;1.30;;;15.70;99.90;;;;;;5098360;28;20643;-74
2023/08/09 04:33:08;;;;;;;1.40;1.30;;;15.70;99.90;;;;;;5098958;28;20718;-74
2023/08/09 04:35:35;;;;;;;1.63;1.53;;;15.70;99.90;;;;;;5097809;28;20646;-74
2023/08/09 04:38:03;;;;;;;1.00;1.00;;;15.60;99.90;;;;;;5090399;28;20675;-74
2023/08/09 04:40:30;;;;;;;1.70;1.43;;;15.60;99.90;;;;;;5097653;28;20640;-74
2023/08/09 04:42:57;;;;;;;1.30;1.20;;;15.60;99.90;;;;;;5088008;28;20645;-74
2023/08/09 04:45:25;;;;;;;1.80;1.60;;;15.70;99.90;;;;;;5087975;28;20647;-74
2023/08/09 04:47:53;;;;;;;1.97;1.53;;;15.60;99.80;;;;;;5087831;28;20678;-74
2023/08/09 04:50:22;;;;;;;1.10;0.97;;;15.60;99.90;;;;;;5086955;28;20624;-74
2023/08/09 04:52:49;;;;;;;1.57;1.23;;;15.60;99.90;;;;;;5087240;28;20953;-74
2023/08/09 04:55:15;;;;;;;1.90;1.53;;;15.60;99.90;;;;;;5092978;28;21231;-74
2023/08/09 04:57:45;;;;;;;1.97;1.50;;;15.60;99.30;;;;;;5094214;28;20632;-74
2023/08/09 05:00:13;;;;;;;1.23;1.20;;;15.60;99.60;;;;;;5089547;28;20622;-74
2023/08/09 05:02:40;;;;;;;1.50;1.37;;;15.60;99.50;;;;;;5092793;28;20651;-74
2023/08/09 05:05:08;;;;;;;1.50;1.30;;;15.60;99.80;;;;;;5090360;28;20613;-73
2023/08/09 05:07:37;;;;;;;1.40;1.30;;;15.60;99.20;;;;;;5090328;28;20642;-72
2023/08/09 05:10:06;;;;;;;1.03;0.93;;;15.70;99.50;;;;;;5096790;28;20628;-72
2023/08/09 05:12:33;;;;;;;1.83;1.50;;;15.70;99.40;;;;;;5098570;28;20631;-72
2023/08/09 05:15:00;;;;;;;1.27;1.10;;;15.70;99.20;;;;;;5096842;28;20631;-70
2023/08/09 05:17:27;;;;;;;1.40;1.30;;;15.70;99.40;;;;;;5100491;28;20648;-71
2023/08/09 05:19:53;;;;;;;1.23;1.13;;;15.70;99.30;;;;;;5100595;28;20624;-71
2023/08/09 05:22:21;;;;;;;2.97;1.30;;;15.70;99.60;;;;;;5092961;28;21008;-71
2023/08/09 05:24:49;;;;;;;4.47;2.13;;;15.70;99.90;;;;;;5101426;28;20626;-71
2023/08/09 05:27:16;;;;;;;1.50;1.40;;;15.70;99.90;;;;;;5101377;28;20657;-72
2023/08/09 05:29:42;;;;;;;1.43;1.27;;;15.60;99.90;;;;;;5081116;28;20621;-72
2023/08/09 05:32:09;;;;;;;1.63;1.53;;;15.70;99.90;;;;;;5098478;28;21219;-72
2023/08/09 05:34:36;;;;;;;1.20;1.10;;;15.70;99.90;;;;;;5100617;28;20623;-72
2023/08/09 05:37:03;;;;;;;1.27;1.20;;;15.70;99.90;;;;;;5097822;28;20659;-72
2023/08/09 05:39:30;;;;;;;5.40;1.30;;;15.70;99.90;;;;;;5097481;28;20627;-73
2023/08/09 05:41:58;;;;;;;1.23;1.23;;;15.70;99.90;;;;;;5093009;28;20648;-73
2023/08/09 05:44:25;;;;;;;1.30;1.20;;;15.80;99.90;;;;;;5098948;28;20626;-72
2023/08/09 05:46:52;;;;;;;1.40;1.30;;;15.90;99.90;;;;;;5097177;28;20758;-74
2023/08/09 05:49:19;;;;;;;0.80;0.80;;;15.90;99.90;;;;;;5095281;28;20720;-73
2023/08/09 05:51:46;;;;;;;1.30;1.20;;;15.90;99.70;;;;;;5097412;28;20648;-74
2023/08/09 05:54:12;;;;;;;1.50;1.40;;;15.90;99.90;;;;;;5099715;28;20630;-73
2023/08/09 05:56:39;;;;;;;1.20;1.20;;;15.90;99.90;;;;;;5087640;28;20905;-74
2023/08/09 05:59:07;;;;;;;1.47;1.17;;;16.00;99.70;;;;;;5097848;28;20628;-74
2023/08/09 06:01:34;;;;;;;1.30;1.20;;;16.00;99.90;;;;;;5083509;28;20645;-74
2023/08/09 06:04:01;;;;;;;1.73;1.63;;;16.00;99.50;;;;;;5098683;28;21057;-74
2023/08/09 06:06:28;;;;;;;1.57;1.47;;;16.10;99.40;;;;;;5100876;28;20738;-75
2023/08/09 06:08:55;;;;;;;1.67;1.33;;;16.10;99.60;;;;;;5100682;28;20634;-75
2023/08/09 06:11:22;;;;;;;1.63;1.53;;;16.10;99.10;;;;;;5097697;28;20643;-75
2023/08/09 06:13:49;;;;;;;1.30;1.20;;;16.10;99.20;;;;;;5097431;28;21116;-74
2023/08/09 06:16:17;;;;;;;1.70;1.20;;;16.20;99.30;;;;;;5091847;28;20747;-74
2023/08/09 06:18:43;;;;;;;1.43;1.33;;;16.20;98.70;;;;;;5100800;28;20628;-75
2023/08/09 06:21:10;;;;;;;1.20;1.20;;;16.20;98.40;;;;;;5100637;28;20646;-74
2023/08/09 06:23:37;;;;;;;1.10;1.10;;;16.30;98.30;;;;;;5097595;28;20667;-72
2023/08/09 06:26:04;;;;;;;0.90;0.90;;;16.30;98.00;;;;;;5097812;28;20644;-72
2023/08/09 06:28:31;;;;;;;1.40;1.30;;;16.40;97.80;;;;;;5094091;28;20664;-72
2023/08/09 06:30:58;;;;;;;2.77;1.40;;;16.40;97.30;;;;;;5080811;28;20676;-71
2023/08/09 06:33:26;;;;;;;1.50;1.40;;;16.50;96.90;;;;;;5088448;28;20623;-72
2023/08/09 06:35:53;;;;;;;3.00;1.43;;;16.50;98.10;;;;;;5088925;28;20996;-71
2023/08/09 06:38:20;;;;;;;2.17;1.47;;;16.50;97.80;;;;;;5097052;28;20633;-71
2023/08/09 06:40:47;;;;;;;1.00;1.00;;;16.50;97.10;;;;;;5098689;28;21050;-71
2023/08/09 06:43:14;;;;;;;2.07;1.50;;;16.60;96.70;;;;;;5100525;28;20662;-71
2023/08/09 06:45:40;;;;;;;5.20;1.17;;;16.70;97.20;;;;;;5097420;28;20649;-71
2023/08/09 06:48:08;;;;;;;1.30;1.13;;;16.70;96.10;;;;;;5092696;28;20620;-72
2023/08/09 06:50:37;;;;;;;2.10;1.33;;;16.70;96.30;;;;;;5099030;28;20639;-71
2023/08/09 06:53:04;;;;;;;1.57;1.23;;;16.80;96.20;;;;;;5079847;28;20629;-71
2023/08/09 06:55:31;;;;;;;1.57;1.27;;;16.80;96.10;;;;;;5098083;28;20700;-72
2023/08/09 06:57:56;;;;;;;2.13;1.53;;;16.90;96.20;;;;;;5097605;28;20658;-71
2023/08/09 07:00:23;;;;;;;2.70;1.20;;;17.00;96.30;;;;;;5097698;28;21480;-71
2023/08/09 07:02:50;;;;;;;4.07;1.53;;;17.10;95.90;;;;;;5096124;28;20934;-71
2023/08/09 07:05:18;;;;;;;2.03;1.13;;;17.20;96.00;;;;;;5096161;28;20612;-72
2023/08/09 07:07:47;;;;;;;2.43;1.53;;;17.40;96.10;;;;;;5093215;28;20652;-71
2023/08/09 07:10:15;;;;;;;1.60;1.50;;;17.60;95.70;;;;;;5095979;28;20627;-71
2023/08/09 07:12:43;;;;;;;1.07;1.00;;;17.70;95.00;;;;;;5096961;28;20621;-71
2023/08/09 07:15:10;;;;;;;2.00;1.57;;;17.80;95.10;;;;;;5088948;28;20637;-71
2023/08/09 07:17:37;;;;;;;1.60;1.50;;;17.70;94.60;;;;;;5088292;28;20636;-71
2023/08/09 07:20:07;;;;;;;1.60;1.50;;;17.70;95.00;;;;;;5095989;28;20715;-71
2023/08/09 07:22:33;;;;;;;1.93;1.30;;;17.80;95.60;;;;;;5090782;28;20627;-72
2023/08/09 07:25:02;;;;;;;1.60;1.07;;;17.70;94.40;;;;;;5099680;28;20623;-72
2023/08/09 07:27:29;;;;;;;1.10;1.00;;;17.80;95.10;;;;;;5097887;28;20726;-72
2023/08/09 07:29:55;;;;;;;2.20;1.67;;;17.80;95.00;;;;;;5095865;28;20617;-72
2023/08/09 07:32:22;;;;;;;1.70;1.60;;;17.90;95.70;;;;;;5089219;28;20649;-72
2023/08/09 07:34:50;;;;;;;1.70;1.60;;;17.90;95.10;;;;;;5096493;28;20719;-72
2023/08/09 07:37:17;;;;;;;2.53;1.60;;;17.90;96.20;;;;;;5087041;28;20644;-72
2023/08/09 07:39:44;;;;;;;2.20;1.17;;;18.00;95.40;;;;;;5088536;28;20716;-71
2023/08/09 07:42:12;;;;;;;2.17;1.77;;;18.00;95.00;;;;;;5087291;28;20664;-71
2023/08/09 07:44:39;;;;;;;1.10;1.00;;;18.00;94.70;;;;;;5096644;28;20656;-71
2023/08/09 07:47:05;;;;;;;1.50;1.40;;;18.00;95.20;;;;;;5091984;28;20640;-71
2023/08/09 07:49:32;;;;;;;1.90;1.80;;;18.10;95.00;;;;;;5088610;28;20617;-71
2023/08/09 07:51:59;;;;;;;1.77;1.40;;;18.10;95.60;;;;;;5099200;28;20648;-71
2023/08/09 07:54:26;;;;;;;1.97;1.87;;;18.20;94.80;;;;;;5099405;28;20624;-71
2023/08/09 07:56:52;;;;;;;5.90;1.77;;;18.20;95.10;;;;;;5095606;28;20643;-71
2023/08/09 07:59:21;;;;;;;1.50;1.40;;;18.20;94.80;;;;;;5091857;28;21050;-71
2023/08/09 08:01:48;;;;;;;3.03;1.10;;;18.30;95.00;;;;;;5099283;28;20743;-71
2023/08/09 08:04:15;;;;;;;1.63;1.53;;;18.20;93.70;;;;;;5090087;28;20644;-71
2023/08/09 08:06:42;;;;;;;1.27;1.17;;;18.20;94.70;;;;;;5099101;28;20767;-71
2023/08/09 08:09:12;;;;;;;4.70;2.20;;;18.20;93.90;;;;;;5096867;28;20620;-71
2023/08/09 08:11:39;;;;;;;1.47;1.07;;;18.10;94.90;;;;;;5097233;28;20647;-71
2023/08/09 08:14:06;;;;;;;1.80;1.70;;;18.20;94.60;;;;;;5098411;28;21223;-71
2023/08/09 08:16:34;;;;;;;5.60;1.50;;;18.10;93.70;;;;;;5086667;28;20659;-71
2023/08/09 08:19:01;;;;;;;1.43;1.33;;;18.10;94.40;;;;;;5095215;28;20625;-71
2023/08/09 08:21:28;;;;;;;1.33;1.03;;;18.10;94.30;;;;;;5098777;28;21205;-71
2023/08/09 08:23:56;;;;;;;0.90;0.90;;;18.20;95.10;;;;;;5091205;28;20656;-71
2023/08/09 08:26:23;;;;;;;1.20;1.10;;;18.20;94.70;;;;;;5088124;28;20653;-72
2023/08/09 08:28:50;;;;;;;2.27;1.30;;;18.20;95.20;;;;;;5100384;28;20731;-72
2023/08/09 08:31:19;;;;;;;2.83;1.47;;;18.20;95.60;;;;;;5102602;28;20665;-72
2023/08/09 08:33:49;;;;;;;2.70;1.80;;;18.30;95.10;;;;;;5083491;28;20620;-71
2023/08/09 08:36:16;;;;;;;1.33;1.23;;;18.40;94.80;;;;;;5092785;28;20645;-72
2023/08/09 08:38:43;;;;;;;1.30;1.20;;;18.40;94.90;;;;;;5101844;28;20624;-72
2023/08/09 08:41:10;;;;;;;1.53;1.30;;;18.50;94.30;;;;;;5096644;28;20644;-72
2023/08/09 08:43:37;;;;;;;1.23;1.10;;;18.60;93.90;;;;;;5098840;28;20656;-71
2023/08/09 08:46:05;;;;;;;2.50;2.27;;;18.60;94.00;;;;;;5091281;28;20752;-71
2023/08/09 08:48:33;;;;;;;1.47;1.37;;;18.60;94.20;;;;;;5090553;28;21230;-71
2023/08/09 08:51:02;;;;;;;1.23;1.17;;;18.60;93.60;;;;;;5095074;28;20743;-71
2023/08/09 08:53:29;;;;;;;1.70;1.60;;;18.70;94.00;;;;;;5099411;28;20649;-71
2023/08/09 08:55:57;;;;;;;1.83;1.53;;;18.80;93.90;;;;;;5101288;28;21003;-71
2023/08/09 08:58:24;;;;;;;1.30;1.20;;;18.70;93.20;;;;;;5096117;28;20711;-72
2023/08/09 09:00:50;;;;;;;2.97;1.37;;;18.70;94.30;;;;;;5096111;28;20644;-71
2023/08/09 09:03:17;;;;;;;3.17;1.53;;;18.60;94.40;;;;;;5100067;28;20652;-72
2023/08/09 09:05:44;;;;;;;1.50;1.30;;;18.60;94.30;;;;;;5102401;28;20643;-72
2023/08/09 09:08:14;;;;;;;2.17;1.97;;;18.60;94.20;;;;;;5099299;28;20630;-71
2023/08/09 09:10:45;;;;;;;1.17;1.07;;;18.70;94.30;;;;;;5098477;28;20751;-71
2023/08/09 09:13:23;;;;;;;1.30;1.20;;;18.80;93.70;;;;;;5100326;28;20731;-71
2023/08/09 09:15:52;;;;;;;1.87;1.50;;;18.80;94.20;;;;;;5094871;28;20648;-71
2023/08/09 09:18:21;;;;;;;1.37;0.90;;;18.80;94.10;;;;;;5092113;28;20629;-71
2023/08/09 09:20:48;;;;;;;1.67;1.10;;;18.80;94.30;;;;;;5098813;28;20747;-71
2023/08/09 09:23:27;;;;;;;2.80;1.97;;;18.80;94.60;;;;;;5096447;28;20671;-71
2023/08/09 09:26:05;;;;;;;1.80;1.43;;;18.70;93.90;;;;;;5101978;28;20651;-71
2023/08/09 09:28:39;;;;;;;3.17;1.87;;;18.80;94.40;;;;;;5099551;28;20635;-71
2023/08/09 09:31:06;;;;;;;2.17;1.83;;;18.90;94.50;;;;;;5098104;28;20648;-71
2023/08/09 09:33:34;;;;;;;1.83;1.57;;;18.90;94.40;;;;;;5100342;28;20656;-71
2023/08/09 09:36:01;;;;;;;1.73;1.57;;;18.90;94.50;;;;;;5101419;28;20640;-71
2023/08/09 09:38:29;;;;;;;1.60;1.50;;;18.90;94.00;;;;;;5093942;28;20625;-71
2023/08/09 09:40:57;;;;;;;5.63;1.33;;;18.90;94.30;;;;;;5096479;28;20667;-71
2023/08/09 09:43:24;;;;;;;2.20;1.73;;;19.00;94.60;;;;;;5097837;28;21199;-71
2023/08/09 09:45:54;;;;;;;1.83;1.73;;;19.00;94.30;;;;;;5098500;28;20640;-71
2023/08/09 09:48:21;;;;;;;1.20;1.10;;;19.10;94.50;;;;;;5098185;28;20878;-71
2023/08/09 09:50:48;;;;;;;1.37;1.27;;;19.10;93.70;;;;;;5090595;28;20645;-71
2023/08/09 09:53:16;;;;;;;1.53;1.43;;;19.10;94.80;;;;;;5098161;28;20629;-71
2023/08/09 09:55:44;;;;;;;1.70;1.60;;;19.10;94.20;;;;;;5098009;28;20645;-71
2023/08/09 09:58:12;;;;;;;2.33;1.50;;;19.10;94.00;;;;;;5093299;28;20636;-71
2023/08/09 10:00:44;;;;;;;2.03;1.70;;;19.00;94.10;;;;;;5100585;28;20643;-71
2023/08/09 10:03:13;;;;;;;1.67;1.37;;;19.10;94.30;;;;;;5088185;28;20621;-71
2023/08/09 10:05:41;;;;;;;1.50;1.40;;;19.20;94.30;;;;;;5098371;28;20707;-71
2023/08/09 10:08:10;;;;;;;1.57;1.37;;;19.30;94.00;;;;;;5099855;28;20632;-71
2023/08/09 10:10:39;;;;;;;1.50;1.40;;;19.30;94.00;;;;;;5088193;28;20645;-71
2023/08/09 10:13:09;;;;;;;1.80;1.70;;;19.30;93.10;;;;;;5099974;28;20734;-72
2023/08/09 10:15:40;;;;;;;1.93;1.70;;;19.20;93.40;;;;;;5095223;28;21110;-72
2023/08/09 10:18:10;;;;;;;1.87;1.77;;;19.20;93.50;;;;;;5100569;28;20692;-71
2023/08/09 10:20:38;;;;;;;1.90;1.60;;;19.20;93.50;;;;;;5096994;28;20744;-71
2023/08/09 10:23:05;;;;;;;1.63;1.53;;;19.20;94.20;;;;;;5097582;28;20733;-71
2023/08/09 10:25:43;;;;;;;1.53;1.20;;;19.30;94.50;;;;;;5099196;28;20663;-71
2023/08/09 10:28:11;;;;;;;1.80;1.70;;;19.40;93.80;;;;;;5084709;28;20724;-71
2023/08/09 10:30:45;;;;;;;1.90;1.37;;;19.20;93.80;;;;;;5094600;28;20657;-71
2023/08/09 10:33:18;;;;;;;2.50;1.40;;;19.30;93.70;;;;;;5097628;28;20616;-71
2023/08/09 10:35:47;;;;;;;2.00;1.47;;;19.20;93.70;;;;;;5081003;28;20659;-71
2023/08/09 10:38:15;;;;;;;2.27;1.77;;;19.20;93.40;;;;;;5095261;28;20673;-73
2023/08/09 10:40:43;;;;;;;4.47;2.43;;;19.20;93.80;;;;;;5087816;28;20661;-73
2023/08/09 10:43:18;;;;;;;1.60;1.30;;;19.10;93.40;;;;;;5090021;28;20632;-73
2023/08/09 10:45:45;;;;;;;2.00;1.30;;;19.00;93.80;;;;;;5097021;28;20672;-73
2023/08/09 10:48:23;;;;;;;1.70;1.60;;;19.20;93.90;;;;;;5096760;28;21058;-73
2023/08/09 10:51:02;;;;;;;1.33;1.23;;;19.40;94.00;;;;;;5096058;28;20742;-73
2023/08/09 10:53:28;;;;;;;2.60;1.37;;;19.50;94.00;;;;;;5099768;28;20622;-71
2023/08/09 10:55:57;;;;;;;1.80;1.53;;;19.80;94.00;;;;;;5090002;28;20653;-72
2023/08/09 10:58:29;;;;;;;1.50;1.40;;;19.90;93.20;;;;;;5085269;28;20625;-72
2023/08/09 11:00:56;;;;;;;1.47;1.37;;;20.00;92.70;;;;;;5094202;28;21043;-72
2023/08/09 11:03:23;;;;;;;1.37;1.27;;;20.00;92.80;;;;;;5091925;28;20634;-71
2023/08/09 11:05:52;;;;;;;2.30;1.33;;;19.90;93.00;;;;;;5092452;28;20669;-72
2023/08/09 11:08:19;;;;;;;1.73;1.63;;;20.00;92.90;;;;;;5085074;28;20643;-71
2023/08/09 11:10:48;;;;;;;2.33;1.70;;;20.10;92.90;;;;;;5094654;28;21013;-72
2023/08/09 11:13:18;;;;;;;1.50;1.40;;;20.40;92.40;;;;;;5088239;28;20622;-71
2023/08/09 11:15:48;;;;;;;1.50;1.40;;;20.60;92.80;;;;;;5087677;28;20766;-71
2023/08/09 11:18:15;;;;;;;1.57;1.47;;;21.00;93.20;;;;;;5088880;28;20728;-71
2023/08/09 11:20:42;;;;;;;1.77;1.67;;;21.50;92.50;;;;;;5087400;28;20655;-71
2023/08/09 11:23:09;;;;;;;1.23;1.00;;;21.60;91.30;;;;;;5096400;28;20626;-71
2023/08/09 11:25:36;;;;;;;1.70;1.60;;;21.40;90.70;;;;;;5095852;28;20762;-71
2023/08/09 11:28:07;;;;;;;1.40;1.27;;;21.50;91.30;;;;;;5096986;28;20615;-71
2023/08/09 11:30:34;;;;;;;2.37;1.73;;;21.90;91.60;;;;;;5086503;28;20658;-71
2023/08/09 11:33:04;;;;;;;2.43;1.50;;;22.10;90.50;;;;;;5096146;28;20632;-70
2023/08/09 11:35:33;;;;;;;1.70;1.60;;;22.10;90.10;;;;;;5096308;28;20638;-71
2023/08/09 11:38:00;;;;;;;1.90;1.50;;;22.00;89.30;;;;;;5087337;28;20646;-71
2023/08/09 11:40:27;;;;;;;1.43;1.10;;;21.80;90.20;;;;;;5095835;28;20668;-71
2023/08/09 11:42:58;;;;;;;1.30;1.20;;;22.00;89.30;;;;;;5095786;28;20953;-71
2023/08/09 11:45:26;;;;;;;1.00;0.90;;;22.10;90.30;;;;;;5087648;28;21298;-71
2023/08/09 11:47:54;;;;;;;1.67;1.43;;;22.10;86.70;;;;;;5101615;28;21167;-71
2023/08/09 11:50:24;;;;;;;1.80;1.27;;;22.30;89.40;;;;;;5093324;28;20622;-71
2023/08/09 11:52:55;;;;;;;1.50;1.07;;;22.40;89.10;;;;;;5096414;28;20724;-71
2023/08/09 11:55:23;;;;;;;1.53;1.37;;;22.60;88.30;;;;;;5095538;28;20676;-71
2023/08/09 11:57:51;;;;;;;1.63;1.40;;;22.30;87.10;;;;;;5088451;28;20737;-71
2023/08/09 12:00:18;;;;;;;5.20;1.43;;;22.10;87.80;;;;;;5092750;28;20634;-71
2023/08/09 12:02:45;;;;;;;1.30;1.20;;;22.30;88.30;;;;;;5095161;28;20622;-71
2023/08/09 12:05:14;;;;;;;1.07;1.07;;;22.60;89.60;;;;;;5083061;28;20655;-71
2023/08/09 12:07:42;;;;;;;1.50;1.40;;;22.80;85.80;;;;;;5100645;28;20640;-71
2023/08/09 12:10:14;;;;;;;4.43;1.43;;;22.90;87.70;;;;;;5095526;28;20761;-71
2023/08/09 12:12:42;;;;;;;1.70;1.60;;;22.90;87.10;;;;;;5094407;28;21198;-72
2023/08/09 12:15:10;;;;;;;2.00;1.40;;;22.60;86.40;;;;;;5100859;28;20616;-71
2023/08/09 12:17:37;;;;;;;1.30;1.20;;;22.20;86.10;;;;;;5102761;28;20620;-72
2023/08/09 12:20:06;;;;;;;1.70;1.40;;;21.90;87.50;;;;;;5102668;28;20729;-72
2023/08/09 12:22:34;;;;;;;1.60;1.33;;;21.80;87.90;;;;;;5096276;28;20623;-72
2023/08/09 12:25:03;;;;;;;1.73;1.63;;;21.90;88.80;;;;;;5101985;28;20657;-72
2023/08/09 12:27:29;;;;;;;2.00;1.27;;;22.10;87.80;;;;;;5097766;28;20978;-72
2023/08/09 12:29:56;;;;;;;1.30;1.20;;;22.10;86.60;;;;;;5082877;28;20629;-72
2023/08/09 12:32:24;;;;;;;1.70;1.43;;;22.00;86.10;;;;;;5089374;28;20698;-72
2023/08/09 12:34:51;;;;;;;1.50;1.40;;;22.10;89.70;;;;;;5095778;28;20628;-72
2023/08/09 12:37:18;;;;;;;3.97;1.73;;;22.10;86.80;;;;;;5091947;28;20758;-72
2023/08/09 12:39:45;;;;;;;1.40;1.30;;;22.20;87.70;;;;;;5091844;28;20636;-72
2023/08/09 12:42:13;;;;;;;1.10;1.00;;;22.20;87.90;;;;;;5098604;28;21235;-71
2023/08/09 12:44:40;;;;;;;1.47;1.23;;;22.20;88.20;;;;;;5089890;28;20656;-72
2023/08/09 12:47:07;;;;;;;1.73;1.33;;;22.20;87.10;;;;;;5098267;28;21230;-72
2023/08/09 12:49:34;;;;;;;3.10;1.63;;;22.20;87.00;;;;;;5090857;28;21015;-72
2023/08/09 12:52:02;;;;;;;1.47;1.37;;;22.10;88.20;;;;;;5099112;28;20658;-72